Katharina — V2DQ5 — position and weather

sailwx.info

Track history (hours):
 
Tides and Currents Weather Stations Pressure Air Temp Water Temp Dewpoint Dewpoint Depression Visibility Wind Speed Wind Dir Waves Ship Positions

Katharina

Last reported at 2016-Feb-05 07:29 UTC. Time now 2016-Feb-07 13:14 UTC.
Position N 59°06' E 004°57'.

Length 146 m; draft 5.8 m.

Type: Ship. MMSI: 305305000.

Date/timePositionNaut miles runAvg speedWind from/ knotsBaromVisibWave heightAir tempDewpointWater temp
2016-Feb-05 07:29N 59°06' E 004°57'1111.9
2016-Feb-05 06:33N 59°07' E 005°19'7 1.0
2016-Feb-04 23:18N 59°14' E 005°21'5 6.2
2016-Feb-04 22:33N 59°09' E 005°21'6 5.6
2016-Feb-04 21:33N 59°04' E 005°18'8 7.8
2016-Feb-04 20:33N 58°58' E 005°07'10 9.9
2016-Feb-04 19:31N 58°48' E 005°05'279 9.6
2016-Feb-03 14:17N 54°09' E 005°05'7 9.2
2016-Feb-03 13:30N 54°02' E 005°04'1110.5
2016-Feb-03 12:30N 53°52' E 004°58'10710.5
2016-Feb-03 02:18N 52°12' E 003°53'810.2
2016-Feb-03 01:33N 52°05' E 003°57'10 9.7
2016-Feb-03 00:34N 51°58' E 004°08'10 9.8
2016-Feb-02 23:33N 51°54' E 004°23'2 1.4
2016-Feb-02 22:29N 51°53' E 004°25'0 0.0
2016-Feb-02 21:32N 51°53' E 004°25'0 0.0
2016-Feb-02 14:26N 51°53' E 004°25'0 0.0
2016-Feb-02 12:08N 51°53' E 004°25'0 0.0
2016-Feb-02 11:32N 51°53' E 004°25'0 0.0
2016-Feb-02 09:08N 51°53' E 004°25'0 0.0
2016-Feb-02 05:14N 51°53' E 004°25'0 0.0
2016-Feb-02 03:26N 51°53' E 004°25'0 0.0
2016-Feb-02 02:26N 51°53' E 004°25'0 0.0
2016-Feb-01 23:14N 51°53' E 004°25'0 0.0
2016-Feb-01 22:14N 51°53' E 004°25'0 0.0
2016-Feb-01 21:26N 51°53' E 004°25'0 0.0
2016-Feb-01 16:20N 51°53' E 004°25'0 0.0
2016-Feb-01 14:26N 51°53' E 004°25'0 0.0
2016-Feb-01 10:20N 51°53' E 004°25'0 0.2
2016-Feb-01 09:33N 51°53' E 004°24'7 7.4
2016-Feb-01 08:32N 51°56' E 004°13'1010.6
2016-Feb-01 07:33N 52°00' E 003°58'9211.3
2016-Jan-31 23:28N 52°54' E 001°56'1212.9
2016-Jan-31 22:33N 53°02' E 001°41'9111.3
2016-Jan-31 14:28N 54°17' E 000°13'1011.0
2016-Jan-31 13:33N 54°26' E 000°08'  
Track history (hours):
 
Tides and Currents Weather Stations Pressure Air Temp Water Temp Dewpoint Dewpoint Depression Visibility Wind Speed Wind Dir Waves Ship Positions

Katharina

Last reported at 2016-Feb-05 07:29 UTC. Time now 2016-Feb-07 13:14 UTC.
Position N 59°06' E 004°57'.

Length 146 m; draft 5.8 m.

Type: Ship. MMSI: 305305000.

Date/timePositionNaut miles runAvg speedWind from/ knotsBaromVisibWave heightAir tempDewpointWater temp
2016-Feb-05 07:29N 59°06' E 004°57'1111.9
2016-Feb-05 06:33N 59°07' E 005°19'7 1.0
2016-Feb-04 23:18N 59°14' E 005°21'5 6.2
2016-Feb-04 22:33N 59°09' E 005°21'6 5.6
2016-Feb-04 21:33N 59°04' E 005°18'8 7.8
2016-Feb-04 20:33N 58°58' E 005°07'10 9.9
2016-Feb-04 19:31N 58°48' E 005°05'279 9.6
2016-Feb-03 14:17N 54°09' E 005°05'7 9.2
2016-Feb-03 13:30N 54°02' E 005°04'1110.5
2016-Feb-03 12:30N 53°52' E 004°58'10710.5
2016-Feb-03 02:18N 52°12' E 003°53'810.2
2016-Feb-03 01:33N 52°05' E 003°57'10 9.7
2016-Feb-03 00:34N 51°58' E 004°08'10 9.8
2016-Feb-02 23:33N 51°54' E 004°23'2 1.4
2016-Feb-02 22:29N 51°53' E 004°25'0 0.0
2016-Feb-02 21:32N 51°53' E 004°25'0 0.0
2016-Feb-02 14:26N 51°53' E 004°25'0 0.0
2016-Feb-02 12:08N 51°53' E 004°25'0 0.0
2016-Feb-02 11:32N 51°53' E 004°25'0 0.0
2016-Feb-02 09:08N 51°53' E 004°25'0 0.0
2016-Feb-02 05:14N 51°53' E 004°25'0 0.0
2016-Feb-02 03:26N 51°53' E 004°25'0 0.0
2016-Feb-02 02:26N 51°53' E 004°25'0 0.0
2016-Feb-01 23:14N 51°53' E 004°25'0 0.0
2016-Feb-01 22:14N 51°53' E 004°25'0 0.0
2016-Feb-01 21:26N 51°53' E 004°25'0 0.0
2016-Feb-01 16:20N 51°53' E 004°25'0 0.0
2016-Feb-01 14:26N 51°53' E 004°25'0 0.0
2016-Feb-01 10:20N 51°53' E 004°25'0 0.2
2016-Feb-01 09:33N 51°53' E 004°24'7 7.4
2016-Feb-01 08:32N 51°56' E 004°13'1010.6
2016-Feb-01 07:33N 52°00' E 003°58'9211.3
2016-Jan-31 23:28N 52°54' E 001°56'1212.9
2016-Jan-31 22:33N 53°02' E 001°41'9111.3
2016-Jan-31 14:28N 54°17' E 000°13'1011.0
2016-Jan-31 13:33N 54°26' E 000°08'  

Dump ship's entire track history